Time,TemperatureF,DewpointF,PressureIn,WindDirection,WindDirectionDegrees,WindSpeedMPH,WindSpeedGustMPH,Humidity,HourlyPrecipIn,Conditions,Clouds,dailyrainin,SoftwareType,DateUTC
2013-10-30 00:02:00,53.6,53.0,30.15,NE,36,0.0,3.0,96,0.02,,,0.00,weatherlink.com 1.10,2013-10-30 04:02:00,
2013-10-30 00:17:00,53.7,53.0,30.15,NE,46,0.0,4.0,97,0.02,,,0.01,weatherlink.com 1.10,2013-10-30 04:17:00,
2013-10-30 00:32:00,53.8,53.0,30.14,NE,46,1.0,3.0,97,0.01,,,0.01,weatherlink.com 1.10,2013-10-30 04:32:00,
2013-10-30 00:47:00,53.9,53.0,30.13,NE,46,0.0,3.0,97,0.02,,,0.02,weatherlink.com 1.10,2013-10-30 04:47:00,
2013-10-30 01:03:00,54.1,53.0,30.13,North,355,0.0,3.0,97,0.03,,,0.03,weatherlink.com 1.10,2013-10-30 05:03:00,
2013-10-30 01:18:00,54.2,53.0,30.12,NNW,344,0.0,3.0,97,0.03,,,0.04,weatherlink.com 1.10,2013-10-30 05:18:00,
2013-10-30 01:33:00,54.3,54.0,30.12,NNW,344,0.0,0.0,97,0.03,,,0.04,weatherlink.com 1.10,2013-10-30 05:33:00,
2013-10-30 01:48:00,54.3,54.0,30.12,North,355,0.0,2.0,97,0.03,,,0.05,weatherlink.com 1.10,2013-10-30 05:48:00,
2013-10-30 02:03:00,54.4,54.0,30.11,NW,318,0.0,3.0,97,0.02,,,0.05,weatherlink.com 1.10,2013-10-30 06:03:00,
2013-10-30 02:18:00,54.5,54.0,30.11,NW,318,0.0,0.0,97,0.02,,,0.06,weatherlink.com 1.10,2013-10-30 06:18:00,
2013-10-30 02:33:00,54.6,54.0,30.11,NW,318,0.0,1.0,97,0.02,,,0.07,weatherlink.com 1.10,2013-10-30 06:33:00,
2013-10-30 02:48:00,54.8,54.0,30.11,SW,221,0.0,3.0,97,0.18,,,0.23,weatherlink.com 1.10,2013-10-30 06:48:00,
2013-10-30 03:03:00,54.8,54.0,30.11,SW,221,0.0,1.0,97,0.19,,,0.24,weatherlink.com 1.10,2013-10-30 07:03:00,
2013-10-30 03:18:00,54.9,54.0,30.11,WSW,245,0.0,3.0,97,0.18,,,0.24,weatherlink.com 1.10,2013-10-30 07:18:00,
2013-10-30 03:33:00,54.9,54.0,30.11,WSW,245,0.0,0.0,97,0.16,,,0.24,weatherlink.com 1.10,2013-10-30 07:33:00,
2013-10-30 03:48:00,54.8,54.0,30.09,WSW,245,0.0,0.0,97,0.01,,,0.24,weatherlink.com 1.10,2013-10-30 07:48:00,
2013-10-30 04:03:00,54.9,54.0,30.09,WSW,245,0.0,0.0,97,0.01,,,0.25,weatherlink.com 1.10,2013-10-30 08:03:00,
2013-10-30 04:18:00,54.9,54.0,30.11,WNW,290,0.0,2.0,97,0.04,,,0.28,weatherlink.com 1.10,2013-10-30 08:18:00,
2013-10-30 04:33:00,54.9,54.0,30.10,NNE,18,3.0,5.0,97,0.08,,,0.32,weatherlink.com 1.10,2013-10-30 08:33:00,
2013-10-30 04:48:00,55.0,54.0,30.10,NNE,24,0.0,3.0,97,0.13,,,0.37,weatherlink.com 1.10,2013-10-30 08:48:00,
2013-10-30 05:03:00,54.9,54.0,30.09,North,360,0.0,0.0,97,0.16,,,0.41,weatherlink.com 1.10,2013-10-30 09:03:00,
2013-10-30 05:18:00,54.9,54.0,30.09,North,360,0.0,0.0,97,0.14,,,0.42,weatherlink.com 1.10,2013-10-30 09:18:00,
2013-10-30 05:33:00,55.0,54.0,30.11,North,360,0.0,1.0,97,0.20,,,0.52,weatherlink.com 1.10,2013-10-30 09:33:00,
2013-10-30 05:48:00,55.0,54.0,30.10,North,360,0.0,0.0,97,0.29,,,0.66,weatherlink.com 1.10,2013-10-30 09:48:00,
2013-10-30 06:03:00,55.5,55.0,30.11,WSW,252,0.0,0.0,98,0.28,,,0.69,weatherlink.com 1.10,2013-10-30 10:03:00,
2013-10-30 06:18:00,55.7,55.0,30.12,NNW,342,0.0,0.0,98,0.36,,,0.78,weatherlink.com 1.10,2013-10-30 10:18:00,
2013-10-30 06:33:00,55.9,55.0,30.11,NNW,342,0.0,0.0,98,0.26,,,0.79,weatherlink.com 1.10,2013-10-30 10:33:00,
2013-10-30 06:48:00,56.2,56.0,30.12,NNW,342,0.0,0.0,98,0.15,,,0.81,weatherlink.com 1.10,2013-10-30 10:48:00,
2013-10-30 07:03:00,56.1,56.0,30.11,NNW,342,0.0,0.0,98,0.11,,,0.81,weatherlink.com 1.10,2013-10-30 11:03:00,
2013-10-30 07:18:00,56.0,56.0,30.11,NNW,342,0.0,0.0,98,0.04,,,0.82,weatherlink.com 1.10,2013-10-30 11:18:00,
2013-10-30 07:33:00,56.0,56.0,30.11,NNW,342,0.0,0.0,98,0.04,,,0.83,weatherlink.com 1.10,2013-10-30 11:33:00,
2013-10-30 07:48:00,56.2,56.0,30.11,NNW,342,0.0,0.0,98,0.02,,,0.83,weatherlink.com 1.10,2013-10-30 11:48:00,
2013-10-30 08:03:00,56.1,56.0,30.11,NNW,342,0.0,0.0,98,0.02,,,0.83,weatherlink.com 1.10,2013-10-30 12:03:00,
2013-10-30 08:18:00,56.1,56.0,30.11,NNW,342,0.0,0.0,98,0.01,,,0.83,weatherlink.com 1.10,2013-10-30 12:18:00,
2013-10-30 08:33:00,56.1,56.0,30.11,NNW,342,0.0,0.0,98,0.00,,,0.83,weatherlink.com 1.10,2013-10-30 12:33:00,
2013-10-30 08:48:00,56.2,56.0,30.12,NNW,342,0.0,0.0,98,0.00,,,0.83,weatherlink.com 1.10,2013-10-30 12:48:00,
2013-10-30 09:03:00,56.3,56.0,30.12,NNW,342,0.0,0.0,98,0.00,,,0.83,weatherlink.com 1.10,2013-10-30 13:03:00,
2013-10-30 09:18:00,56.5,56.0,30.13,NNW,342,0.0,0.0,98,0.00,,,0.83,weatherlink.com 1.10,2013-10-30 13:18:00,
2013-10-30 09:33:00,56.6,56.0,30.13,NNW,342,0.0,0.0,98,0.00,,,0.83,weatherlink.com 1.10,2013-10-30 13:33:00,
2013-10-30 09:48:00,56.8,56.0,30.13,NNW,342,0.0,0.0,98,0.00,,,0.83,weatherlink.com 1.10,2013-10-30 13:48:00,
2013-10-30 10:03:00,57.5,57.0,30.13,NNW,342,0.0,0.0,98,0.00,,,0.83,weatherlink.com 1.10,2013-10-30 14:03:00,
2013-10-30 10:18:00,58.1,58.0,30.13,NNW,342,0.0,0.0,98,0.00,,,0.83,weatherlink.com 1.10,2013-10-30 14:18:00,
2013-10-30 10:33:00,58.6,58.0,30.13,NNW,342,0.0,0.0,98,0.00,,,0.83,weatherlink.com 1.10,2013-10-30 14:33:00,
2013-10-30 10:48:00,59.3,59.0,30.12,NNW,342,0.0,0.0,98,0.00,,,0.83,weatherlink.com 1.10,2013-10-30 14:48:00,
2013-10-30 11:03:00,60.3,60.0,30.12,NNW,342,0.0,1.0,98,0.00,,,0.83,weatherlink.com 1.10,2013-10-30 15:03:00,
2013-10-30 11:18:00,61.6,61.0,30.12,South,185,0.0,3.0,98,0.00,,,0.83,weatherlink.com 1.10,2013-10-30 15:18:00,
2013-10-30 11:33:00,61.9,61.0,30.12,South,185,0.0,2.0,98,0.00,,,0.83,weatherlink.com 1.10,2013-10-30 15:33:00,
2013-10-30 11:48:00,62.2,62.0,30.12,South,185,0.0,1.0,98,0.00,,,0.83,weatherlink.com 1.10,2013-10-30 15:48:00,
2013-10-30 12:03:00,63.0,63.0,30.11,South,169,1.0,2.0,99,0.00,,,0.83,weatherlink.com 1.10,2013-10-30 16:03:00,
2013-10-30 12:18:00,63.2,63.0,30.11,SSW,195,2.0,5.0,98,0.00,,,0.83,weatherlink.com 1.10,2013-10-30 16:18:00,
2013-10-30 12:33:00,63.3,63.0,30.11,South,186,3.0,9.0,98,0.00,,,0.83,weatherlink.com 1.10,2013-10-30 16:33:00,
2013-10-30 12:48:00,64.4,64.0,30.10,ENE,58,2.0,6.0,98,0.00,,,0.83,weatherlink.com 1.10,2013-10-30 16:48:00,
2013-10-30 13:04:00,64.5,63.0,30.09,South,180,4.0,6.0,96,0.00,,,0.83,weatherlink.com 1.10,2013-10-30 17:04:00,
2013-10-30 13:19:00,65.1,64.0,30.08,South,188,2.0,6.0,95,0.00,,,0.83,weatherlink.com 1.10,2013-10-30 17:19:00,
2013-10-30 13:34:00,65.8,64.0,30.07,SSW,201,7.0,10.0,93,0.00,,,0.83,weatherlink.com 1.10,2013-10-30 17:34:00,
2013-10-30 13:49:00,66.7,64.0,30.05,SSE,150,3.0,8.0,91,0.00,,,0.83,weatherlink.com 1.10,2013-10-30 17:49:00,
2013-10-30 14:04:00,67.6,65.0,30.05,SSW,201,2.0,9.0,90,0.00,,,0.83,weatherlink.com 1.10,2013-10-30 18:04:00,
2013-10-30 14:19:00,67.8,64.0,30.05,SSW,200,2.0,10.0,88,0.00,,,0.83,weatherlink.com 1.10,2013-10-30 18:19:00,
2013-10-30 14:34:00,68.1,65.0,30.05,South,188,9.0,9.0,88,0.00,,,0.83,weatherlink.com 1.10,2013-10-30 18:34:00,
2013-10-30 14:49:00,67.8,65.0,30.04,WSW,254,5.0,5.0,89,0.00,,,0.83,weatherlink.com 1.10,2013-10-30 18:49:00,
2013-10-30 15:04:00,67.6,64.0,30.04,SE,146,1.0,5.0,89,0.00,,,0.83,weatherlink.com 1.10,2013-10-30 19:04:00,
2013-10-30 15:19:00,67.4,65.0,30.03,South,189,3.0,6.0,90,0.00,,,0.83,weatherlink.com 1.10,2013-10-30 19:19:00,
2013-10-30 15:34:00,67.3,64.0,30.03,SSW,196,4.0,6.0,89,0.00,,,0.83,weatherlink.com 1.10,2013-10-30 19:34:00,
2013-10-30 15:49:00,67.1,65.0,30.03,South,180,0.0,5.0,91,0.00,,,0.83,weatherlink.com 1.10,2013-10-30 19:49:00,
2013-10-30 16:19:00,67.1,65.0,30.02,South,181,0.0,1.0,92,0.00,,,0.83,weatherlink.com 1.10,2013-10-30 20:19:00,
2013-10-30 16:34:00,67.4,65.0,30.02,South,187,0.0,3.0,90,0.00,,,0.83,weatherlink.com 1.10,2013-10-30 20:34:00,
2013-10-30 16:49:00,67.5,65.0,30.02,South,186,1.0,2.0,90,0.00,,,0.83,weatherlink.com 1.10,2013-10-30 20:49:00,
2013-10-30 17:04:00,67.6,65.0,30.02,South,186,0.0,2.0,90,0.00,,,0.83,weatherlink.com 1.10,2013-10-30 21:04:00,
2013-10-30 17:19:00,67.7,65.0,30.02,South,186,2.0,3.0,90,0.00,,,0.83,weatherlink.com 1.10,2013-10-30 21:19:00,
2013-10-30 17:34:00,67.7,65.0,30.01,South,175,1.0,3.0,90,0.00,,,0.83,weatherlink.com 1.10,2013-10-30 21:34:00,
2013-10-30 17:49:00,67.7,65.0,30.01,South,186,4.0,4.0,90,0.00,,,0.83,weatherlink.com 1.10,2013-10-30 21:49:00,
2013-10-30 18:04:00,67.7,65.0,30.00,South,180,1.0,4.0,90,0.00,,,0.83,weatherlink.com 1.10,2013-10-30 22:04:00,
2013-10-30 18:19:00,67.5,65.0,30.00,South,180,2.0,4.0,90,0.00,,,0.83,weatherlink.com 1.10,2013-10-30 22:19:00,
2013-10-30 18:34:00,67.2,65.0,30.00,South,180,0.0,3.0,91,0.00,,,0.83,weatherlink.com 1.10,2013-10-30 22:34:00,
2013-10-30 19:04:00,66.6,64.0,30.00,South,178,0.0,2.0,92,0.00,,,0.83,weatherlink.com 1.10,2013-10-30 23:04:00,
2013-10-30 19:19:00,66.1,64.0,30.00,South,190,2.0,4.0,92,0.00,,,0.83,weatherlink.com 1.10,2013-10-30 23:19:00,
2013-10-30 19:34:00,66.1,64.0,30.00,South,186,0.0,3.0,93,0.00,,,0.83,weatherlink.com 1.10,2013-10-30 23:34:00,
2013-10-30 19:49:00,65.9,64.0,30.00,South,178,0.0,3.0,93,0.00,,,0.83,weatherlink.com 1.10,2013-10-30 23:49:00,
2013-10-30 20:04:00,65.7,64.0,30.00,SSW,192,2.0,3.0,93,0.00,,,0.83,weatherlink.com 1.10,2013-10-31 00:04:00,
2013-10-30 20:19:00,65.3,64.0,30.01,South,190,2.0,4.0,94,0.00,,,0.83,weatherlink.com 1.10,2013-10-31 00:19:00,
2013-10-30 20:34:00,65.4,64.0,30.00,SSW,206,2.0,4.0,94,0.00,,,0.83,weatherlink.com 1.10,2013-10-31 00:34:00,
2013-10-30 20:49:00,65.8,64.0,29.99,SSW,207,4.0,5.0,93,0.00,,,0.83,weatherlink.com 1.10,2013-10-31 00:49:00,
2013-10-30 21:04:00,66.3,64.0,29.99,South,177,3.0,5.0,91,0.00,,,0.83,weatherlink.com 1.10,2013-10-31 01:04:00,
2013-10-30 21:19:00,66.6,64.0,29.99,South,177,2.0,7.0,90,0.00,,,0.83,weatherlink.com 1.10,2013-10-31 01:19:00,
2013-10-30 21:34:00,66.5,64.0,29.98,South,181,3.0,4.0,90,0.00,,,0.83,weatherlink.com 1.10,2013-10-31 01:34:00,
2013-10-30 21:49:00,66.6,63.0,29.98,South,178,2.0,5.0,89,0.00,,,0.83,weatherlink.com 1.10,2013-10-31 01:49:00,
2013-10-30 22:04:00,66.7,63.0,29.98,South,175,3.0,5.0,89,0.00,,,0.83,weatherlink.com 1.10,2013-10-31 02:04:00,
2013-10-30 22:19:00,66.9,63.0,29.98,South,177,2.0,8.0,87,0.00,,,0.83,weatherlink.com 1.10,2013-10-31 02:19:00,
2013-10-30 22:34:00,67.0,63.0,29.98,South,183,2.0,6.0,87,0.00,,,0.83,weatherlink.com 1.10,2013-10-31 02:34:00,
2013-10-30 22:49:00,67.0,63.0,29.99,South,174,1.0,5.0,86,0.00,,,0.83,weatherlink.com 1.10,2013-10-31 02:49:00,
2013-10-30 23:04:00,66.8,63.0,29.98,South,187,4.0,5.0,86,0.00,,,0.83,weatherlink.com 1.10,2013-10-31 03:04:00,
2013-10-30 23:19:00,66.5,63.0,29.98,South,190,1.0,5.0,87,0.00,,,0.83,weatherlink.com 1.10,2013-10-31 03:19:00,
2013-10-30 23:34:00,66.3,62.0,29.98,SSE,148,2.0,9.0,86,0.00,,,0.83,weatherlink.com 1.10,2013-10-31 03:34:00,
2013-10-30 23:49:00,66.2,62.0,29.98,South,170,4.0,6.0,86,0.00,,,0.83,weatherlink.com 1.10,2013-10-31 03:49:00,